createdAt,value
2019-05-02T06:14:01.753Z,83.97
2019-05-02T06:31:29.492Z,93.80
2019-05-02T07:34:58.931Z,116.33
2019-05-02T07:38:41.546Z,134.00
2019-05-02T07:41:10.211Z,121.33
2019-05-02T07:43:38.654Z,128.10
2019-05-02T07:46:07.119Z,112.43
2019-05-02T07:48:35.607Z,120.03
2019-05-02T07:51:04.125Z,119.33
2019-05-02T07:53:32.600Z,121.27
2019-05-02T07:56:01.098Z,132.87
2019-05-02T07:58:29.797Z,120.30
2019-05-02T08:00:58.322Z,134.57
2019-05-02T08:03:29.440Z,136.80
2019-05-02T08:05:58.681Z,125.53
2019-05-02T08:08:29.851Z,128.03
2019-05-02T08:11:01.836Z,127.50
2019-05-02T08:13:27.810Z,137.70
2019-05-02T08:15:56.255Z,127.50
2019-05-02T08:18:25.157Z,123.83
2019-05-02T08:20:55.952Z,135.00
2019-05-02T08:23:25.857Z,125.70
2019-05-02T08:25:55.362Z,135.30
2019-05-02T08:28:28.527Z,131.70
2019-05-02T08:30:57.611Z,119.87
2019-05-02T08:33:29.413Z,140.40
2019-05-02T08:35:56.211Z,133.07
2019-05-02T08:38:24.679Z,128.17
2019-05-02T08:40:53.098Z,134.23
2019-05-02T08:43:21.634Z,125.07
2019-05-02T08:45:50.140Z,137.63
2019-05-02T08:48:18.575Z,137.27
2019-05-02T08:50:47.041Z,140.73
2019-05-02T08:53:19.984Z,137.27
2019-05-02T08:55:46.737Z,128.53
2019-05-02T08:58:15.900Z,135.23
2019-05-02T09:00:47.227Z,129.03
2019-05-02T09:03:14.935Z,142.40
2019-05-02T09:05:45.983Z,127.80
2019-05-02T09:08:14.254Z,140.60
2019-05-02T09:10:44.820Z,132.77
2019-05-02T09:13:15.897Z,119.10
2019-05-02T09:15:49.766Z,130.40
2019-05-02T09:18:13.886Z,112.67
2019-05-02T09:20:42.453Z,128.33
2019-05-02T09:23:12.414Z,129.37
2019-05-02T09:25:42.938Z,113.90
2019-05-02T09:28:12.501Z,121.27
2019-05-02T09:30:41.886Z,116.40
2019-05-02T09:33:11.732Z,130.40
2019-05-02T09:35:42.149Z,119.70
2019-05-02T09:38:12.907Z,130.73
2019-05-02T09:40:42.641Z,133.17
2019-05-02T09:43:12.173Z,120.20
2019-05-02T09:45:41.826Z,118.67
2019-05-02T09:48:12.563Z,135.77
2019-05-02T09:50:42.116Z,123.40
2019-05-02T09:53:13.184Z,115.73
2019-05-02T09:55:42.016Z,97.03
2019-05-02T09:58:19.629Z,113.00
2019-05-02T10:01:02.031Z,107.87
2019-05-02T10:03:31.945Z,134.30
2019-05-02T10:10:37.286Z,124.73
2019-05-02T10:13:07.412Z,122.90
2019-05-02T10:15:36.121Z,109.93
2019-05-02T10:18:10.644Z,100.80
2019-05-02T10:20:36.500Z,107.97
2019-05-02T10:23:05.591Z,112.50
2019-05-02T10:25:38.549Z,108.57
2019-05-02T10:28:05.339Z,115.57
2019-05-02T10:30:35.997Z,113.40
2019-05-02T10:33:05.339Z,110.17
2019-05-02T10:35:40.718Z,98.20
2019-05-02T10:38:09.446Z,96.57
2019-05-02T10:40:38.363Z,99.87
2019-05-02T10:43:06.889Z,102.83
2019-05-02T10:45:36.300Z,113.67
2019-05-02T10:48:04.966Z,97.37
2019-05-02T10:50:42.269Z,107.23
2019-05-02T10:53:15.394Z,107.93
2019-05-02T10:55:42.453Z,98.63
2019-05-02T10:58:12.430Z,95.37
2019-05-02T11:00:44.870Z,87.30
2019-05-02T11:03:15.702Z,87.97
2019-05-02T11:05:48.591Z,94.80
2019-05-02T11:08:17.032Z,97.50
2019-05-02T11:10:45.918Z,93.90
2019-05-02T11:13:32.280Z,93.97
2019-05-02T11:16:18.501Z,86.57
2019-05-02T11:18:52.585Z,82.30
2019-05-02T11:21:22.879Z,85.33
2019-05-02T11:23:52.613Z,92.27
2019-05-02T11:26:24.925Z,98.57
2019-05-02T11:28:52.239Z,101.00
2019-05-02T11:31:21.870Z,89.03
2019-05-02T11:33:52.718Z,93.30
2019-05-02T11:36:22.339Z,83.53
2019-05-02T11:39:00.164Z,88.60
2019-05-02T11:41:22.453Z,98.40
2019-05-02T11:43:54.107Z,94.50
2019-05-02T11:46:22.113Z,90.03
2019-05-02T11:48:56.311Z,95.77
2019-05-02T11:51:22.744Z,92.57
2019-05-02T11:53:52.617Z,95.13
2019-05-02T11:56:22.280Z,89.03
2019-05-02T11:58:52.881Z,81.20
2019-05-02T12:01:35.071Z,77.17
2019-05-02T12:03:52.780Z,70.60
2019-05-02T12:06:22.547Z,75.50
2019-05-02T12:08:52.505Z,74.90
2019-05-02T12:11:22.973Z,78.40
2019-05-02T12:13:56.611Z,80.30
2019-05-02T12:16:22.877Z,82.80
2019-05-02T12:18:53.578Z,75.43
2019-05-02T12:21:22.878Z,75.73
2019-05-02T12:23:52.729Z,82.07
2019-05-02T12:26:22.042Z,62.83
2019-05-02T12:28:52.435Z,71.47
2019-05-02T12:31:26.285Z,65.77
2019-05-02T12:33:55.456Z,66.20
2019-05-02T12:36:24.019Z,78.90
2019-05-02T12:38:52.822Z,68.13
2019-05-02T12:41:24.903Z,64.67
2019-05-02T12:43:52.475Z,66.83
2019-05-02T12:46:22.178Z,60.40
2019-05-02T12:48:51.903Z,66.60
2019-05-02T12:51:22.518Z,60.67
2019-05-02T12:53:52.899Z,58.30
2019-05-02T12:56:22.963Z,62.43
2019-05-02T12:58:52.994Z,57.03
2019-05-02T13:01:22.071Z,56.57
2019-05-02T13:03:54.993Z,55.87
2019-05-02T13:06:23.449Z,53.67
2019-05-02T13:08:52.648Z,52.80
2019-05-02T13:11:28.742Z,58.43
2019-05-02T13:13:57.164Z,53.13
2019-05-02T13:16:25.856Z,59.70
2019-05-02T13:18:57.293Z,52.33
2019-05-02T13:21:41.499Z,58.60
2019-05-02T13:24:16.752Z,55.07
2019-05-02T13:26:45.394Z,46.93
2019-05-02T13:29:14.100Z,42.80
2019-05-02T13:31:46.907Z,52.40
2019-05-02T13:34:19.578Z,50.57
2019-05-02T13:36:52.096Z,47.13
2019-05-02T13:39:34.619Z,54.80
2019-05-02T13:42:03.241Z,57.03
2019-05-02T13:44:33.310Z,49.17
2019-05-02T13:47:02.736Z,45.77
2019-05-02T13:49:32.450Z,49.67
2019-05-02T13:52:02.494Z,51.23
2019-05-02T13:54:32.964Z,46.13
2019-05-02T13:57:03.132Z,45.57
2019-05-02T13:59:33.611Z,44.03
2019-05-02T14:02:02.850Z,61.30
2019-05-02T14:04:32.679Z,54.10
2019-05-02T14:07:02.970Z,39.37
2019-05-02T14:09:33.053Z,44.17
2019-05-02T14:12:12.200Z,42.43
2019-05-02T14:14:42.349Z,47.40
2019-05-02T14:17:11.713Z,57.90
2019-05-02T14:19:42.094Z,50.30
2019-05-02T14:22:12.762Z,49.30
2019-05-02T14:24:42.185Z,50.17
2019-05-02T14:27:12.884Z,48.50
2019-05-02T14:29:42.362Z,45.90
2019-05-02T14:32:22.876Z,54.00
2019-05-02T14:34:48.768Z,51.90
2019-05-02T14:37:17.288Z,48.60
2019-05-02T14:39:47.359Z,49.17
2019-05-02T14:42:22.197Z,49.70
2019-05-02T14:45:04.310Z,45.33
2019-05-02T14:47:19.562Z,47.80
2019-05-02T14:49:46.760Z,46.50
2019-05-02T14:52:15.248Z,47.70
2019-05-02T14:54:47.714Z,47.97
2019-05-02T14:57:17.014Z,48.13
2019-05-02T14:59:45.665Z,51.63
2019-05-02T15:02:15.931Z,49.47
2019-05-02T15:04:48.697Z,51.73
2019-05-02T15:07:17.721Z,48.93
2019-05-02T15:09:44.864Z,45.40
2019-05-02T15:12:15.857Z,49.13
2019-05-02T15:14:43.482Z,54.77
2019-05-02T15:17:12.188Z,50.77
2019-05-02T15:19:42.641Z,45.03
2019-05-02T15:22:12.434Z,57.70
2019-05-02T15:24:42.392Z,50.40
2019-05-02T15:27:16.555Z,59.60
2019-05-02T15:29:41.995Z,55.77
2019-05-02T15:32:28.675Z,51.57
2019-05-02T15:35:02.501Z,50.57
2019-05-02T15:37:32.127Z,56.60
2019-05-02T15:42:33.275Z,52.20
2019-05-02T15:45:05.141Z,69.00
2019-05-02T15:47:32.090Z,68.77
2019-05-02T15:50:02.839Z,67.33
2019-05-02T15:52:34.980Z,77.63
2019-05-02T15:55:04.941Z,90.63
2019-05-02T15:57:43.110Z,95.10
2019-05-02T16:00:07.854Z,81.70
2019-05-02T16:02:36.330Z,81.80
2019-05-02T16:05:07.310Z,93.70
2019-05-02T16:07:38.118Z,89.13
2019-05-02T16:10:08.416Z,98.20
2019-05-02T16:12:37.409Z,97.70
2019-05-02T16:15:13.256Z,103.30
2019-05-02T16:17:37.032Z,112.10
2019-05-02T16:20:15.199Z,111.03
2019-05-02T16:22:49.532Z,106.43
2019-05-02T16:25:14.118Z,105.30
2019-05-02T16:27:46.669Z,107.00
2019-05-02T16:30:18.553Z,126.90
2019-05-02T16:32:48.994Z,119.53
2019-05-02T16:35:19.234Z,113.00
2019-05-02T16:37:54.079Z,123.03
2019-05-02T16:40:22.171Z,113.00
2019-05-02T16:42:51.685Z,120.77
2019-05-02T16:45:22.219Z,110.17
2019-05-02T16:47:58.604Z,112.27
2019-05-02T16:50:22.882Z,107.80
2019-05-02T16:52:53.061Z,117.83
2019-05-02T16:55:26.320Z,137.10
2019-05-02T16:57:56.518Z,128.10
2019-05-02T17:00:25.602Z,116.47
2019-05-02T17:02:54.195Z,116.90
2019-05-02T17:05:22.736Z,128.27
2019-05-02T17:07:58.594Z,128.93
2019-05-02T17:10:28.787Z,130.87
2019-05-02T17:13:00.195Z,136.60
2019-05-02T17:15:31.417Z,128.90
2019-05-02T17:17:59.234Z,142.10
2019-05-02T17:20:27.825Z,124.97
2019-05-02T17:23:01.925Z,144.43
2019-05-02T17:25:26.703Z,137.00
2019-05-02T17:28:01.130Z,136.07
2019-05-02T17:30:25.498Z,134.07
2019-05-02T17:32:54.111Z,144.27
2019-05-02T17:35:22.703Z,135.17
2019-05-02T17:37:52.362Z,148.97
2019-05-02T17:40:25.801Z,135.10
2019-05-02T17:42:52.488Z,131.23
2019-05-02T17:45:23.893Z,131.60
2019-05-02T17:47:52.612Z,141.00
2019-05-02T17:50:23.132Z,136.57
2019-05-02T17:52:56.127Z,129.10
2019-05-02T17:55:23.530Z,115.83
2019-05-02T17:57:51.983Z,132.50
2019-05-02T18:00:22.391Z,135.23
2019-05-02T18:02:51.774Z,135.43
2019-05-02T18:05:21.717Z,127.17
2019-05-02T18:07:50.305Z,134.30
2019-05-02T18:10:22.377Z,131.03
2019-05-02T18:12:56.681Z,109.90
2019-05-02T18:15:19.443Z,122.03
2019-05-02T18:17:47.896Z,111.70
2019-05-02T18:20:16.610Z,116.90
2019-05-02T18:22:48.860Z,103.70
2019-05-02T18:25:16.316Z,99.60
2019-05-02T18:27:45.526Z,117.17
2019-05-02T18:30:17.222Z,95.23
2019-05-02T18:32:45.890Z,102.93
2019-05-02T18:35:14.595Z,92.73
2019-05-02T18:37:46.743Z,89.80
2019-05-02T18:40:14.017Z,99.77
2019-05-02T18:42:42.747Z,84.97
2019-05-02T18:45:25.374Z,85.57
2019-05-02T18:47:55.419Z,88.97
2019-05-02T18:50:26.858Z,96.70
2019-05-02T18:52:55.754Z,83.47
2019-05-02T18:55:25.853Z,96.87
2019-05-02T18:57:56.956Z,78.33
2019-05-02T19:00:27.925Z,75.77
2019-05-02T19:02:56.597Z,80.43
2019-05-02T19:05:26.605Z,74.23
2019-05-02T19:07:56.529Z,70.60
2019-05-02T19:10:25.241Z,70.37
2019-05-02T19:12:56.189Z,79.90
2019-05-02T19:15:24.231Z,70.80
2019-05-02T19:17:52.964Z,66.57
2019-05-02T19:20:24.577Z,69.93
2019-05-02T19:22:56.869Z,61.07
2019-05-02T19:25:23.257Z,59.70
2019-05-02T19:27:57.723Z,53.80
2019-05-02T19:30:32.640Z,57.37
2019-05-02T19:33:03.707Z,57.80
2019-05-02T19:35:32.757Z,55.00
2019-05-02T19:38:02.571Z,57.50
2019-05-02T19:40:31.798Z,54.77
2019-05-02T19:43:05.945Z,61.70
2019-05-02T19:45:32.735Z,60.63
2019-05-02T19:48:02.635Z,59.13
2019-05-02T19:50:43.179Z,46.70
2019-05-02T19:53:14.858Z,55.50
2019-05-02T19:55:37.805Z,63.47
2019-05-02T19:58:06.968Z,61.63
2019-05-02T20:00:36.655Z,59.97
2019-05-02T20:03:06.576Z,63.30
2019-05-02T20:05:35.175Z,73.30
2019-05-02T20:08:03.856Z,75.83
2019-05-02T20:10:32.421Z,61.63
2019-05-02T20:13:02.919Z,65.17
2019-05-02T20:15:33.024Z,66.07
2019-05-02T20:18:04.632Z,64.67
2019-05-02T20:20:57.093Z,60.87
2019-05-02T20:23:31.660Z,57.67
2019-05-02T20:25:55.763Z,60.27
2019-05-02T20:28:24.262Z,55.60
2019-05-02T20:30:52.791Z,63.53
2019-05-02T20:33:22.200Z,63.33
2019-05-02T20:35:52.650Z,53.70
2019-05-02T20:38:21.962Z,64.97
2019-05-02T20:40:52.224Z,63.40
2019-05-02T20:43:22.612Z,52.03
2019-05-02T20:45:52.810Z,45.20
2019-05-02T20:48:22.694Z,36.90
2019-05-02T20:50:51.944Z,36.57
2019-05-02T20:53:30.247Z,39.67
2019-05-02T20:55:52.416Z,34.60
2019-05-02T20:58:22.000Z,33.97
2019-05-02T21:01:05.040Z,33.40
2019-05-02T21:03:21.312Z,34.63
2019-05-02T21:06:12.051Z,30.50
2019-05-02T21:08:48.070Z,33.27
2019-05-02T21:11:16.590Z,31.50
2019-05-02T21:13:45.083Z,32.97
2019-05-02T21:16:13.789Z,37.00
2019-05-02T21:18:42.385Z,33.77
2019-05-02T21:21:12.669Z,36.47
2019-05-02T21:23:47.051Z,40.23
2019-05-02T21:26:11.941Z,34.70
2019-05-02T21:28:40.450Z,43.37
2019-05-02T21:31:08.915Z,43.30
2019-05-02T21:33:39.189Z,40.77
2019-05-02T21:36:08.134Z,36.50
2019-05-02T21:38:36.725Z,37.93
2019-05-02T21:41:08.500Z,31.30
2019-05-02T21:43:36.923Z,44.33
2019-05-02T21:46:05.498Z,37.77
2019-05-02T21:48:33.962Z,43.83
2019-05-02T21:51:06.963Z,36.93
2019-05-02T21:53:41.545Z,42.00
2019-05-02T21:56:17.214Z,38.27
2019-05-02T21:59:03.041Z,35.87
2019-05-02T22:01:33.401Z,40.30
2019-05-02T22:04:02.332Z,32.27
2019-05-02T22:06:32.283Z,28.50
2019-05-02T22:09:02.913Z,25.70
2019-05-02T22:11:32.007Z,37.43
2019-05-02T22:14:02.319Z,21.20
2019-05-02T22:16:32.481Z,27.60
2019-05-02T22:19:02.704Z,19.57
2019-05-02T22:21:34.678Z,19.30
2019-05-02T22:24:08.967Z,19.77
2019-05-02T22:26:32.769Z,17.23
2019-05-02T22:29:01.919Z,18.93
2019-05-02T22:31:32.387Z,17.60
2019-05-02T22:34:02.219Z,19.67
2019-05-02T22:36:32.667Z,22.97
2019-05-02T22:39:18.978Z,32.13
2019-05-02T22:41:47.435Z,22.20
2019-05-02T22:44:15.889Z,23.07
2019-05-02T22:46:45.185Z,17.67
2019-05-02T22:49:15.167Z,17.03
2019-05-02T22:51:44.294Z,22.77
2019-05-02T22:54:24.064Z,25.20
2019-05-02T22:56:43.687Z,30.77
2019-05-02T22:59:12.114Z,16.33
2019-05-02T23:01:42.180Z,21.33
2019-05-02T23:04:12.798Z,21.20
2019-05-02T23:06:43.916Z,18.00
2019-05-02T23:09:12.649Z,29.23
2019-05-02T23:11:42.619Z,21.27
2019-05-02T23:14:11.555Z,19.03
2019-05-02T23:16:42.305Z,16.67
2019-05-02T23:19:12.078Z,25.13
2019-05-02T23:21:42.324Z,20.87
2019-05-02T23:24:14.652Z,24.10
2019-05-02T23:26:47.018Z,17.73
2019-05-02T23:29:17.507Z,21.07
2019-05-02T23:31:45.928Z,25.40
2019-05-02T23:34:14.419Z,20.37
2019-05-02T23:36:42.858Z,22.03
2019-05-02T23:39:12.468Z,24.63
2019-05-02T23:41:42.083Z,17.13
2019-05-02T23:44:12.250Z,27.60
2019-05-02T23:46:42.417Z,21.90
2019-05-02T23:49:12.782Z,20.30
2019-05-02T23:51:42.647Z,26.40
2019-05-02T23:54:12.816Z,21.83
2019-05-02T23:56:42.955Z,26.67
2019-05-02T23:59:11.961Z,22.00
